createdAt,value
2023-05-11T00:01:41.441Z,1.63
2023-05-11T00:04:11.196Z,1.73
2023-05-11T00:06:41.061Z,1.23
2023-05-11T00:09:11.545Z,1.57
2023-05-11T00:11:41.623Z,1.72
2023-05-11T00:14:11.398Z,2.40
2023-05-11T00:16:41.197Z,1.67
2023-05-11T00:19:10.919Z,1.80
2023-05-11T00:21:40.993Z,1.50
2023-05-11T00:24:10.528Z,2.00
2023-05-11T00:26:40.329Z,1.80
2023-05-11T00:29:09.849Z,1.77
2023-05-11T00:31:39.713Z,2.23
2023-05-11T00:34:09.282Z,1.97
2023-05-11T00:36:41.323Z,1.93
2023-05-11T00:39:12.637Z,2.04
2023-05-11T00:41:42.461Z,1.73
2023-05-11T00:44:12.889Z,1.43
2023-05-11T00:46:43.261Z,2.00
2023-05-11T00:49:15.391Z,2.00
2023-05-11T00:51:45.440Z,1.80
2023-05-11T00:54:16.299Z,1.90
2023-05-11T00:56:48.300Z,1.45
2023-05-11T00:59:17.906Z,1.77
2023-05-11T01:01:47.880Z,1.63
2023-05-11T01:04:17.785Z,2.50
2023-05-11T01:07:09.290Z,1.35
2023-05-11T01:10:06.440Z,1.87
2023-05-11T01:13:04.016Z,4.20
2023-05-11T01:15:49.326Z,1.95
2023-05-11T01:18:41.343Z,1.47
2023-05-11T01:21:15.587Z,1.40
2023-05-11T01:24:05.132Z,2.45
2023-05-11T01:27:00.887Z,3.40
2023-05-11T01:29:46.117Z,2.10
2023-05-11T01:32:21.726Z,2.00
2023-05-11T01:34:54.655Z,2.40
2023-05-11T01:37:26.745Z,1.73
2023-05-11T01:40:00.236Z,1.72
2023-05-11T01:42:41.812Z,2.13
2023-05-11T01:45:13.858Z,1.50
2023-05-11T01:47:46.369Z,1.80
2023-05-11T01:50:18.710Z,1.90
2023-05-11T01:52:50.609Z,2.87
2023-05-11T01:55:24.706Z,2.00
2023-05-11T01:57:56.980Z,2.27
2023-05-11T02:00:27.315Z,2.83
2023-05-11T02:02:59.962Z,2.10
2023-05-11T02:05:31.485Z,1.90
2023-05-11T02:08:04.666Z,2.12
2023-05-11T02:10:36.423Z,2.00
2023-05-11T02:13:07.369Z,2.20
2023-05-11T02:15:43.075Z,2.60
2023-05-11T02:18:15.776Z,1.57
2023-05-11T02:20:47.713Z,1.70
2023-05-11T02:23:18.052Z,2.10
2023-05-11T02:25:49.609Z,1.80
2023-05-11T02:28:20.054Z,2.42
2023-05-11T02:30:54.064Z,1.92
2023-05-11T02:33:32.821Z,2.10
2023-05-11T02:36:04.188Z,1.87
2023-05-11T02:38:38.452Z,2.50
2023-05-11T02:41:12.431Z,1.97
2023-05-11T02:43:45.699Z,2.30
2023-05-11T02:46:18.761Z,1.93
2023-05-11T02:48:54.836Z,2.23
2023-05-11T02:51:28.665Z,2.30
2023-05-11T02:54:00.006Z,2.30
2023-05-11T02:56:32.119Z,1.92
2023-05-11T02:59:03.224Z,2.83
2023-05-11T03:01:34.290Z,2.47
2023-05-11T03:04:07.164Z,1.73
2023-05-11T03:06:38.299Z,1.80
2023-05-11T03:09:10.312Z,1.93
2023-05-11T03:11:43.025Z,1.97
2023-05-11T03:16:42.762Z,2.00
2023-05-11T03:19:13.836Z,2.05
2023-05-11T03:21:43.949Z,2.12
2023-05-11T03:24:13.864Z,1.93
2023-05-11T03:29:15.988Z,2.47
2023-05-11T03:31:45.923Z,2.40
2023-05-11T03:34:16.137Z,1.80
2023-05-11T03:36:48.614Z,1.60
2023-05-11T03:39:19.115Z,2.60
2023-05-11T03:41:50.950Z,2.20
2023-05-11T03:44:22.363Z,2.20
2023-05-11T03:46:54.022Z,1.87
2023-05-11T03:49:25.396Z,2.53
2023-05-11T03:51:55.946Z,1.65
2023-05-11T03:54:26.776Z,2.25
2023-05-11T03:56:57.619Z,2.00
2023-05-11T03:59:27.578Z,1.70
2023-05-11T04:01:58.802Z,1.90
2023-05-11T04:04:32.496Z,1.80
2023-05-11T04:07:02.699Z,2.37
2023-05-11T04:09:32.821Z,2.30
2023-05-11T04:12:02.596Z,2.87
2023-05-11T04:14:32.416Z,2.77
2023-05-11T04:17:02.272Z,1.93
2023-05-11T04:19:32.103Z,3.07
2023-05-11T04:24:32.742Z,2.25
2023-05-11T04:27:03.722Z,2.05
2023-05-11T04:29:33.522Z,2.92
2023-05-11T04:32:03.521Z,2.40
2023-05-11T04:34:33.720Z,2.17
2023-05-11T04:37:06.731Z,2.33
2023-05-11T04:39:39.154Z,2.33
2023-05-11T04:42:08.994Z,4.17
2023-05-11T04:44:39.509Z,2.27
2023-05-11T04:47:09.458Z,1.80
2023-05-11T04:49:39.737Z,2.70
2023-05-11T04:52:10.488Z,2.55
2023-05-11T04:54:40.632Z,2.22
2023-05-11T04:57:10.532Z,2.80
2023-05-11T04:59:40.472Z,2.30
2023-05-11T05:02:10.292Z,2.50
2023-05-11T05:04:40.103Z,2.20
2023-05-11T05:07:10.582Z,2.60
2023-05-11T05:09:41.124Z,2.15
2023-05-11T05:12:12.263Z,1.93
2023-05-11T05:14:42.158Z,2.57
2023-05-11T05:17:11.890Z,2.53
2023-05-11T05:19:42.548Z,2.35
2023-05-11T05:22:12.394Z,2.83
2023-05-11T05:24:42.287Z,2.40
2023-05-11T05:27:12.191Z,1.73
2023-05-11T05:29:42.551Z,2.77
2023-05-11T05:32:12.489Z,2.17
2023-05-11T05:34:42.305Z,2.57
2023-05-11T05:37:12.280Z,2.20
2023-05-11T05:39:42.062Z,2.67
2023-05-11T05:42:12.052Z,2.67
2023-05-11T05:44:42.404Z,3.23
2023-05-11T05:47:12.084Z,2.03
2023-05-11T05:49:42.397Z,2.50
2023-05-11T05:52:12.208Z,3.02
2023-05-11T05:54:43.156Z,2.17
2023-05-11T05:57:15.049Z,4.23
2023-05-11T05:59:45.926Z,3.07
2023-05-11T06:02:17.150Z,2.47
2023-05-11T06:04:47.314Z,2.40
2023-05-11T06:07:17.368Z,2.87
2023-05-11T06:09:47.128Z,3.37
2023-05-11T06:12:16.828Z,2.97
2023-05-11T06:14:47.910Z,2.87
2023-05-11T06:17:17.562Z,2.77
2023-05-11T06:19:47.736Z,2.47
2023-05-11T06:22:17.942Z,6.27
2023-05-11T06:24:47.749Z,2.53
2023-05-11T06:27:18.387Z,2.85
2023-05-11T06:32:17.242Z,3.25
2023-05-11T06:34:47.168Z,3.50
2023-05-11T06:37:18.668Z,2.43
2023-05-11T06:39:52.322Z,3.55
2023-05-11T06:42:23.404Z,4.63
2023-05-11T06:44:53.477Z,3.13
2023-05-11T06:47:24.417Z,2.92
2023-05-11T06:49:54.285Z,2.23
2023-05-11T06:52:24.098Z,2.20
2023-05-11T06:54:54.019Z,2.03
2023-05-11T06:57:23.809Z,2.73
2023-05-11T06:59:53.785Z,2.40
2023-05-11T07:02:23.312Z,2.67
2023-05-11T07:04:53.165Z,2.73
2023-05-11T07:07:22.863Z,2.47
2023-05-11T07:09:52.825Z,2.97
2023-05-11T07:12:22.951Z,2.27
2023-05-11T07:14:52.753Z,2.17
2023-05-11T07:17:22.400Z,2.90
2023-05-11T07:19:52.507Z,2.70
2023-05-11T07:22:22.192Z,2.40
2023-05-11T07:24:52.071Z,2.70
2023-05-11T07:27:21.606Z,2.23
2023-05-11T07:29:52.571Z,2.37
2023-05-11T07:32:22.742Z,2.50
2023-05-11T07:34:52.478Z,2.67
2023-05-11T07:37:22.283Z,2.52
2023-05-11T07:39:52.046Z,3.53
2023-05-11T07:42:21.862Z,1.90
2023-05-11T07:44:51.737Z,2.43
2023-05-11T07:47:21.555Z,3.00
2023-05-11T07:49:51.163Z,2.70
2023-05-11T07:52:20.931Z,2.83
2023-05-11T07:54:50.918Z,2.23
2023-05-11T07:57:21.180Z,1.93
2023-05-11T07:59:51.316Z,2.42
2023-05-11T08:02:20.868Z,2.23
2023-05-11T08:04:50.834Z,1.67
2023-05-11T08:07:20.340Z,2.97
2023-05-11T08:09:50.228Z,1.60
2023-05-11T08:12:20.079Z,1.70
2023-05-11T08:14:49.962Z,2.20
2023-05-11T08:17:19.814Z,0.82
2023-05-11T08:19:49.552Z,1.17
2023-05-11T08:22:19.417Z,1.10
2023-05-11T08:24:50.742Z,2.80
2023-05-11T08:27:21.188Z,1.07
2023-05-11T08:29:52.585Z,0.63
2023-05-11T08:32:22.586Z,0.83
2023-05-11T08:34:52.628Z,1.00
2023-05-11T08:37:23.347Z,0.80
2023-05-11T08:42:23.429Z,0.50
2023-05-11T08:44:57.992Z,1.00
2023-05-11T08:47:28.386Z,0.73
2023-05-11T08:49:58.649Z,0.80
2023-05-11T08:52:28.730Z,1.33
2023-05-11T08:54:58.454Z,3.03
2023-05-11T08:57:30.349Z,1.70
2023-05-11T09:00:03.412Z,1.10
2023-05-11T09:02:34.182Z,1.07
2023-05-11T09:05:04.483Z,0.65
2023-05-11T09:07:37.492Z,0.93
2023-05-11T09:10:08.120Z,1.20
2023-05-11T09:12:38.682Z,1.53
2023-05-11T09:15:09.366Z,0.60
2023-05-11T09:17:38.962Z,1.22
2023-05-11T09:20:09.512Z,1.80
2023-05-11T09:25:18.429Z,0.93
2023-05-11T09:27:49.266Z,0.70
2023-05-11T09:30:24.229Z,1.10
2023-05-11T09:32:58.549Z,1.10
2023-05-11T09:35:30.333Z,1.57
2023-05-11T09:38:11.936Z,1.33
2023-05-11T09:40:43.830Z,0.90
2023-05-11T09:43:24.197Z,0.93
2023-05-11T09:45:57.364Z,0.60
2023-05-11T09:48:32.678Z,0.97
2023-05-11T09:51:09.281Z,0.53
2023-05-11T09:53:46.058Z,0.67
2023-05-11T09:56:16.068Z,0.70
2023-05-11T09:58:48.834Z,0.88
2023-05-11T10:01:21.353Z,1.10
2023-05-11T10:04:00.219Z,1.20
2023-05-11T10:06:25.966Z,2.10
2023-05-11T10:08:56.489Z,0.88
2023-05-11T10:11:26.922Z,1.07
2023-05-11T10:13:59.493Z,0.90
2023-05-11T10:16:29.404Z,1.25
2023-05-11T10:19:00.237Z,2.70
2023-05-11T10:21:30.614Z,1.65
2023-05-11T10:24:01.070Z,1.33
2023-05-11T10:26:32.549Z,0.85
2023-05-11T10:29:02.926Z,1.47
2023-05-11T10:31:34.267Z,1.30
2023-05-11T10:34:05.189Z,0.70
2023-05-11T10:36:35.525Z,0.98
2023-05-11T10:39:06.389Z,0.57
2023-05-11T10:41:41.780Z,1.47
2023-05-11T10:44:32.912Z,0.72
2023-05-11T10:49:38.777Z,0.90
2023-05-11T10:52:23.435Z,0.80
2023-05-11T10:55:15.785Z,0.80
2023-05-11T10:57:51.418Z,0.60
2023-05-11T11:00:28.416Z,0.60
2023-05-11T11:02:59.731Z,1.00
2023-05-11T11:05:38.869Z,1.57
2023-05-11T11:08:09.581Z,1.03
2023-05-11T11:13:11.869Z,1.07
2023-05-11T11:16:02.919Z,0.70
2023-05-11T11:21:06.330Z,0.40
2023-05-11T11:23:48.374Z,0.93
2023-05-11T11:26:21.443Z,0.60
2023-05-11T11:29:02.692Z,0.75
2023-05-11T11:31:34.881Z,0.47
2023-05-11T11:34:32.211Z,0.40
2023-05-11T11:37:03.916Z,0.50
2023-05-11T11:39:50.126Z,0.80
2023-05-11T11:42:38.792Z,0.93
2023-05-11T11:45:32.302Z,0.37
2023-05-11T11:48:10.284Z,0.90
2023-05-11T11:50:41.916Z,0.70
2023-05-11T11:53:16.850Z,0.63
2023-05-11T11:55:51.988Z,0.40
2023-05-11T11:58:47.153Z,1.10
2023-05-11T12:01:19.027Z,0.97
2023-05-11T12:03:52.458Z,1.03
2023-05-11T12:06:26.560Z,2.12
2023-05-11T12:08:56.361Z,0.78
2023-05-11T12:11:27.464Z,0.90
2023-05-11T12:13:57.911Z,0.60
2023-05-11T12:16:29.013Z,1.55
2023-05-11T12:19:01.815Z,0.73
2023-05-11T12:21:33.163Z,0.60
2023-05-11T12:26:34.576Z,0.77
2023-05-11T12:29:15.666Z,0.50
2023-05-11T12:31:47.287Z,0.50
2023-05-11T12:34:18.832Z,2.00
2023-05-11T12:36:50.700Z,0.50
2023-05-11T12:39:27.919Z,0.70
2023-05-11T12:41:58.592Z,1.37
2023-05-11T12:44:28.852Z,0.70
2023-05-11T12:46:58.524Z,0.73
2023-05-11T12:49:28.770Z,0.60
2023-05-11T12:52:06.026Z,0.70
2023-05-11T12:54:44.412Z,0.63
2023-05-11T12:57:28.596Z,0.60
2023-05-11T13:00:13.271Z,0.80
2023-05-11T13:02:52.554Z,0.83
2023-05-11T13:05:29.786Z,0.62
2023-05-11T13:08:04.274Z,0.77
2023-05-11T13:10:34.459Z,0.80
2023-05-11T13:13:04.259Z,1.27
2023-05-11T13:15:34.449Z,0.80
2023-05-11T13:18:04.329Z,1.40
2023-05-11T13:20:35.124Z,1.00
2023-05-11T13:23:13.322Z,0.62
2023-05-11T13:25:51.748Z,0.60
2023-05-11T13:28:24.346Z,1.17
2023-05-11T13:31:02.138Z,1.63
2023-05-11T13:33:31.916Z,0.85
2023-05-11T13:36:02.513Z,0.60
2023-05-11T13:38:32.318Z,1.00
2023-05-11T13:41:02.128Z,0.70
2023-05-11T13:43:32.296Z,1.27
2023-05-11T13:46:03.599Z,0.67
2023-05-11T13:48:33.536Z,1.90
2023-05-11T13:51:03.383Z,1.57
2023-05-11T13:53:33.325Z,1.13
2023-05-11T13:56:04.397Z,0.53
2023-05-11T13:58:34.434Z,0.80
2023-05-11T14:01:08.402Z,1.27
2023-05-11T14:03:36.468Z,1.07
2023-05-11T14:06:07.149Z,0.70
2023-05-11T14:08:37.278Z,0.50
2023-05-11T14:11:06.962Z,0.70
2023-05-11T14:13:36.767Z,0.77
2023-05-11T14:16:07.409Z,0.50
2023-05-11T14:18:37.446Z,0.63
2023-05-11T14:21:07.227Z,1.17
2023-05-11T14:23:39.859Z,0.50
2023-05-11T14:26:08.121Z,1.07
2023-05-11T14:28:37.750Z,1.00
2023-05-11T14:31:07.702Z,0.50
2023-05-11T14:33:37.354Z,1.43
2023-05-11T14:36:07.216Z,1.33
2023-05-11T14:38:36.801Z,0.70
2023-05-11T14:41:07.710Z,0.83
2023-05-11T14:46:06.688Z,1.17
2023-05-11T14:48:36.534Z,0.90
2023-05-11T14:51:07.308Z,1.35
2023-05-11T14:53:37.109Z,1.85
2023-05-11T14:56:07.523Z,0.90
2023-05-11T14:58:37.566Z,0.70
2023-05-11T15:01:08.235Z,0.93
2023-05-11T15:03:38.066Z,0.60
2023-05-11T15:06:08.270Z,1.00
2023-05-11T15:08:38.144Z,2.27
2023-05-11T15:11:07.670Z,0.47
2023-05-11T15:13:37.469Z,0.90
2023-05-11T15:16:07.304Z,0.83
2023-05-11T15:18:37.106Z,0.83
2023-05-11T15:21:07.008Z,1.37
2023-05-11T15:23:36.665Z,0.67
2023-05-11T15:26:06.938Z,0.67
2023-05-11T15:28:36.804Z,1.17
2023-05-11T15:31:06.622Z,0.57
2023-05-11T15:33:36.468Z,0.60
2023-05-11T15:36:10.128Z,0.60
2023-05-11T15:38:40.161Z,0.50
2023-05-11T15:41:10.411Z,0.60
2023-05-11T15:43:40.450Z,0.80
2023-05-11T15:46:10.321Z,1.80
2023-05-11T15:48:39.935Z,1.03
2023-05-11T15:51:09.744Z,1.07
2023-05-11T15:53:39.557Z,0.60
2023-05-11T15:56:09.856Z,0.90
2023-05-11T15:58:39.743Z,0.78
2023-05-11T16:01:09.283Z,0.87
2023-05-11T16:03:39.177Z,0.70
2023-05-11T16:06:09.063Z,0.80
2023-05-11T16:08:38.933Z,1.83
2023-05-11T16:11:08.476Z,0.73
2023-05-11T16:13:38.343Z,0.80
2023-05-11T16:16:08.058Z,1.03
2023-05-11T16:18:39.166Z,0.93
2023-05-11T16:21:09.230Z,0.70
2023-05-11T16:23:38.778Z,0.40
2023-05-11T16:26:09.114Z,0.87
2023-05-11T16:28:38.806Z,0.70
2023-05-11T16:31:09.249Z,0.70
2023-05-11T16:33:39.109Z,1.00
2023-05-11T16:36:09.886Z,0.93
2023-05-11T16:41:08.213Z,0.78
2023-05-11T16:43:39.695Z,1.00
2023-05-11T16:46:10.041Z,0.67
2023-05-11T16:48:39.938Z,0.85
2023-05-11T16:51:09.739Z,1.20
2023-05-11T16:53:39.541Z,0.77
2023-05-11T16:56:09.421Z,1.70
2023-05-11T16:58:39.331Z,1.23
2023-05-11T17:03:38.562Z,1.60
2023-05-11T17:06:10.046Z,0.60
2023-05-11T17:08:39.871Z,1.00
2023-05-11T17:11:09.604Z,0.70
2023-05-11T17:13:39.551Z,0.90
2023-05-11T17:16:09.269Z,0.80
2023-05-11T17:18:39.484Z,0.93
2023-05-11T17:21:09.681Z,0.83
2023-05-11T17:23:39.913Z,1.05
2023-05-11T17:26:10.821Z,1.00
2023-05-11T17:28:41.506Z,0.85
2023-05-11T17:31:13.366Z,0.65
2023-05-11T17:33:43.947Z,0.72
2023-05-11T17:36:14.029Z,1.10
2023-05-11T17:38:43.780Z,1.80
2023-05-11T17:41:14.489Z,1.03
2023-05-11T17:43:44.494Z,0.90
2023-05-11T17:46:16.088Z,0.70
2023-05-11T17:48:46.117Z,2.00
2023-05-11T17:51:16.187Z,0.50
2023-05-11T17:53:46.045Z,0.60
2023-05-11T17:56:15.641Z,0.50
2023-05-11T17:58:45.863Z,0.80
2023-05-11T18:01:16.005Z,0.70
2023-05-11T18:03:46.824Z,1.20
2023-05-11T18:08:46.146Z,1.00
2023-05-11T18:11:16.120Z,0.78
2023-05-11T18:13:46.191Z,1.33
2023-05-11T18:16:15.851Z,0.90
2023-05-11T18:18:46.214Z,0.80
2023-05-11T18:21:15.744Z,1.57
2023-05-11T18:23:45.568Z,1.33
2023-05-11T18:26:16.039Z,1.10
2023-05-11T18:28:46.076Z,0.98
2023-05-11T18:31:17.306Z,0.77
2023-05-11T18:33:47.399Z,0.70
2023-05-11T18:36:17.189Z,1.13
2023-05-11T18:38:48.976Z,0.87
2023-05-11T18:41:18.549Z,0.70
2023-05-11T18:43:52.710Z,1.33
2023-05-11T18:46:22.594Z,0.90
2023-05-11T18:48:54.100Z,1.67
2023-05-11T18:51:24.037Z,1.00
2023-05-11T18:53:54.714Z,1.60
2023-05-11T18:56:24.490Z,0.90
2023-05-11T18:58:54.640Z,0.80
2023-05-11T19:01:33.111Z,1.20
2023-05-11T19:03:56.105Z,1.30
2023-05-11T19:06:25.603Z,1.30
2023-05-11T19:08:55.821Z,1.10
2023-05-11T19:11:25.666Z,3.40
2023-05-11T19:13:55.641Z,0.70
2023-05-11T19:16:25.490Z,0.77
2023-05-11T19:18:56.768Z,1.43
2023-05-11T19:21:26.608Z,1.40
2023-05-11T19:23:56.421Z,1.07
2023-05-11T19:26:26.275Z,1.00
2023-05-11T19:28:56.069Z,1.00
2023-05-11T19:31:28.103Z,0.83
2023-05-11T19:34:02.749Z,1.13
2023-05-11T19:36:33.416Z,0.83
2023-05-11T19:39:04.379Z,1.17
2023-05-11T19:41:34.453Z,1.00
2023-05-11T19:44:04.613Z,1.03
2023-05-11T19:46:34.416Z,1.37
2023-05-11T19:49:04.257Z,0.97
2023-05-11T19:51:34.139Z,1.30
2023-05-11T19:54:04.028Z,1.20
2023-05-11T19:56:33.931Z,1.13
2023-05-11T19:59:04.610Z,1.27
2023-05-11T20:01:35.319Z,1.10
2023-05-11T20:04:06.423Z,0.93
2023-05-11T20:06:36.278Z,1.17
2023-05-11T20:09:07.322Z,1.62
2023-05-11T20:11:37.093Z,1.70
2023-05-11T20:14:06.904Z,1.20
2023-05-11T20:16:37.106Z,2.13
2023-05-11T20:19:06.854Z,1.10
2023-05-11T20:21:36.766Z,1.43
2023-05-11T20:24:06.726Z,1.30
2023-05-11T20:26:38.102Z,1.53
2023-05-11T20:29:09.631Z,0.93
2023-05-11T20:31:39.510Z,1.50
2023-05-11T20:34:09.353Z,0.90
2023-05-11T20:36:39.506Z,1.07
2023-05-11T20:39:09.205Z,1.80
2023-05-11T20:41:39.102Z,1.70
2023-05-11T20:44:10.267Z,1.70
2023-05-11T20:46:39.809Z,1.32
2023-05-11T20:49:11.388Z,2.60
2023-05-11T20:51:41.477Z,1.17
2023-05-11T20:54:12.497Z,2.53
2023-05-11T20:56:42.260Z,1.87
2023-05-11T21:00:03.626Z,1.07
2023-05-11T21:01:43.863Z,1.45
2023-05-11T21:04:13.761Z,1.77
2023-05-11T21:06:43.572Z,1.23
2023-05-11T21:09:13.535Z,1.57
2023-05-11T21:11:43.528Z,1.87
2023-05-11T21:14:13.036Z,1.60
2023-05-11T21:16:42.941Z,2.00
2023-05-11T21:19:12.809Z,1.50
2023-05-11T21:21:42.890Z,1.03
2023-05-11T21:24:13.993Z,1.87
2023-05-11T21:26:47.951Z,1.47
2023-05-11T21:29:17.793Z,1.92
2023-05-11T21:31:47.620Z,1.90
2023-05-11T21:34:17.296Z,1.40
2023-05-11T21:36:47.472Z,1.57
2023-05-11T21:39:17.267Z,2.00
2023-05-11T21:41:47.806Z,1.43
2023-05-11T21:44:17.322Z,2.23
2023-05-11T21:46:47.525Z,1.43
2023-05-11T21:49:17.430Z,1.67
2023-05-11T21:51:47.432Z,1.60
2023-05-11T21:54:16.959Z,1.60
2023-05-11T21:56:46.783Z,1.40
2023-05-11T21:59:19.940Z,2.33
2023-05-11T22:01:50.286Z,2.72
2023-05-11T22:04:21.564Z,1.97
2023-05-11T22:06:51.087Z,1.92
2023-05-11T22:09:20.793Z,1.30
2023-05-11T22:11:51.390Z,1.53
2023-05-11T22:14:23.688Z,1.83
2023-05-11T22:16:53.493Z,1.30
2023-05-11T22:19:23.305Z,1.15
2023-05-11T22:21:53.219Z,1.67
2023-05-11T22:24:24.451Z,1.53
2023-05-11T22:26:54.694Z,1.85
2023-05-11T22:29:24.294Z,1.63
2023-05-11T22:31:57.217Z,1.70
2023-05-11T22:34:27.051Z,1.77
2023-05-11T22:36:57.483Z,2.22
2023-05-11T22:39:27.362Z,2.30
2023-05-11T22:41:57.506Z,1.72
2023-05-11T22:44:28.336Z,1.57
2023-05-11T22:46:59.796Z,1.85
2023-05-11T22:49:29.594Z,1.20
2023-05-11T22:51:59.670Z,1.73
2023-05-11T22:54:29.455Z,1.97
2023-05-11T22:57:00.392Z,1.53
2023-05-11T22:59:31.846Z,1.45
2023-05-11T23:02:04.588Z,2.33
2023-05-11T23:04:34.453Z,2.03
2023-05-11T23:07:04.911Z,1.60
2023-05-11T23:09:35.245Z,1.93
2023-05-11T23:12:06.684Z,2.05
2023-05-11T23:14:36.575Z,1.70
2023-05-11T23:17:06.872Z,1.83
2023-05-11T23:19:36.966Z,2.27
2023-05-11T23:22:06.825Z,1.67
2023-05-11T23:24:37.256Z,1.90
2023-05-11T23:27:07.166Z,1.83
2023-05-11T23:29:37.189Z,1.67
2023-05-11T23:32:07.571Z,3.03
2023-05-11T23:34:38.120Z,2.07
2023-05-11T23:37:08.170Z,1.60
2023-05-11T23:39:38.562Z,1.83
2023-05-11T23:42:09.061Z,1.83
2023-05-11T23:44:39.510Z,2.10
2023-05-11T23:47:09.031Z,2.40
2023-05-11T23:49:41.353Z,2.07
2023-05-11T23:52:10.347Z,1.53
2023-05-11T23:54:40.460Z,1.80
2023-05-11T23:57:10.450Z,1.87
2023-05-11T23:59:40.348Z,2.77
